Time;durP1;ratioP1;P1;durP2;ratioP2;P2;SDS_P1;SDS_P2;PMS_P1;PMS_P2;Temp;Humidity;BMP_temperature;BMP_pressure;BME280_temperature;BME280_humidity;BME280_pressure;Samples;Min_cycle;Max_cycle;Signal;HPM_P1;HPM_P2
2023/12/16 00:01:23;;;;;;;4.93;4.00;;;;;;;;;;6288547;22;20379;-89
2023/12/16 00:03:52;;;;;;;6.93;3.90;;;;;;;;;;6287047;22;20373;-88
2023/12/16 00:06:20;;;;;;;4.23;3.60;;;;;;;;;;6290911;22;20422;-89
2023/12/16 00:08:47;;;;;;;5.63;4.17;;;;;;;;;;6289573;22;20424;-88
2023/12/16 00:11:13;;;;;;;4.33;3.80;;;;;;;;;;6289199;22;20723;-90
2023/12/16 00:13:39;;;;;;;5.30;4.00;;;;;;;;;;6287459;22;20717;-89
2023/12/16 00:16:05;;;;;;;4.30;3.50;;;;;;;;;;6290713;22;20428;-90
2023/12/16 00:18:32;;;;;;;5.53;4.23;;;;;;;;;;6289932;22;20402;-90
2023/12/16 00:20:58;;;;;;;6.33;3.50;;;;;;;;;;6288734;22;20381;-89
2023/12/16 00:23:24;;;;;;;7.00;4.60;;;;;;;;;;6289223;22;20384;-89
2023/12/16 00:25:50;;;;;;;8.60;4.90;;;;;;;;;;6290013;22;20376;-89
2023/12/16 00:28:16;;;;;;;4.23;3.80;;;;;;;;;;6288422;22;20392;-90
2023/12/16 00:30:42;;;;;;;11.40;6.23;;;;;;;;;;6286603;22;20392;-90
2023/12/16 00:33:08;;;;;;;6.00;4.30;;;;;;;;;;6289373;22;20388;-89
2023/12/16 00:35:34;;;;;;;6.83;4.50;;;;;;;;;;6287482;22;20416;-89
2023/12/16 00:38:00;;;;;;;5.50;4.73;;;;;;;;;;6289055;22;20376;-89
2023/12/16 00:40:26;;;;;;;5.07;4.33;;;;;;;;;;6312058;22;20367;-89
2023/12/16 00:42:52;;;;;;;6.70;4.33;;;;;;;;;;6290683;22;20468;-90
2023/12/16 00:45:18;;;;;;;5.40;3.87;;;;;;;;;;6286124;22;20427;-90
2023/12/16 00:47:44;;;;;;;5.43;3.97;;;;;;;;;;6290121;22;20411;-89
2023/12/16 00:50:11;;;;;;;5.90;4.30;;;;;;;;;;6287400;22;20373;-91
2023/12/16 00:52:37;;;;;;;7.40;5.47;;;;;;;;;;6314941;22;20364;-89
2023/12/16 00:55:03;;;;;;;8.00;4.50;;;;;;;;;;6286490;22;20447;-89
2023/12/16 00:57:29;;;;;;;6.37;4.63;;;;;;;;;;6291411;22;20438;-90
2023/12/16 00:59:55;;;;;;;5.63;5.03;;;;;;;;;;6285965;22;20384;-90
2023/12/16 01:02:21;;;;;;;7.47;4.30;;;;;;;;;;6287183;22;20384;-90
2023/12/16 01:04:47;;;;;;;6.07;4.30;;;;;;;;;;6285902;22;20476;-90
2023/12/16 01:07:13;;;;;;;6.83;4.37;;;;;;;;;;6313305;22;20490;-89
2023/12/16 01:09:39;;;;;;;4.97;4.47;;;;;;;;;;6253601;22;20384;-89
2023/12/16 01:12:05;;;;;;;7.63;5.60;;;;;;;;;;6229821;22;20369;-90
2023/12/16 01:14:31;;;;;;;7.70;5.23;;;;;;;;;;6231472;22;20468;-89
2023/12/16 01:16:58;;;;;;;4.50;4.03;;;;;;;;;;6228180;22;20391;-89
2023/12/16 01:19:24;;;;;;;6.00;4.60;;;;;;;;;;6228211;22;20397;-89
2023/12/16 01:21:50;;;;;;;4.20;3.80;;;;;;;;;;6228676;22;20381;-90
2023/12/16 01:24:16;;;;;;;6.20;4.50;;;;;;;;;;6230894;22;20396;-89
2023/12/16 01:26:42;;;;;;;5.53;5.00;;;;;;;;;;6254574;22;20384;-89
2023/12/16 01:29:08;;;;;;;9.03;4.33;;;;;;;;;;6233805;22;20381;-90
2023/12/16 01:31:34;;;;;;;6.80;4.50;;;;;;;;;;6228262;22;20474;-89
2023/12/16 01:34:00;;;;;;;5.60;4.13;;;;;;;;;;6228245;22;20362;-89
2023/12/16 01:36:26;;;;;;;5.03;4.00;;;;;;;;;;6227050;22;20484;-90
2023/12/16 01:38:52;;;;;;;4.10;3.40;;;;;;;;;;6252804;22;20374;-90
2023/12/16 01:41:18;;;;;;;6.67;4.47;;;;;;;;;;6269705;22;20383;-90
2023/12/16 01:43:44;;;;;;;5.60;4.37;;;;;;;;;;6287420;22;20384;-90
2023/12/16 01:46:10;;;;;;;6.83;4.97;;;;;;;;;;6310823;22;20439;-90
2023/12/16 01:48:36;;;;;;;5.90;3.93;;;;;;;;;;6287939;22;20389;-90
2023/12/16 01:51:02;;;;;;;6.57;4.60;;;;;;;;;;6285136;22;20410;-90
2023/12/16 01:53:28;;;;;;;6.40;4.27;;;;;;;;;;6285529;22;20376;-90
2023/12/16 01:55:54;;;;;;;7.70;4.90;;;;;;;;;;6285159;22;20443;-90
2023/12/16 01:58:20;;;;;;;5.40;3.83;;;;;;;;;;6289280;22;20372;-90
2023/12/16 02:00:47;;;;;;;6.40;4.57;;;;;;;;;;6309658;22;20364;-90
2023/12/16 02:03:14;;;;;;;5.57;4.40;;;;;;;;;;6284532;22;20371;-89
2023/12/16 02:05:40;;;;;;;6.50;4.40;;;;;;;;;;6284434;22;20894;-90
2023/12/16 02:08:06;;;;;;;8.20;3.90;;;;;;;;;;6285902;22;20376;-90
2023/12/16 02:10:32;;;;;;;4.93;4.43;;;;;;;;;;6285601;22;20391;-89
2023/12/16 02:12:58;;;;;;;3.93;3.60;;;;;;;;;;6286411;22;20380;-89
2023/12/16 02:15:23;;;;;;;6.87;5.00;;;;;;;;;;6285039;22;20427;-90
2023/12/16 02:17:49;;;;;;;5.47;4.00;;;;;;;;;;6285917;22;20379;-89
2023/12/16 02:20:15;;;;;;;8.80;5.00;;;;;;;;;;6288913;22;20426;-89
2023/12/16 02:22:41;;;;;;;6.63;4.53;;;;;;;;;;6310788;22;20361;-89
2023/12/16 02:25:08;;;;;;;6.53;5.03;;;;;;;;;;6286462;22;20380;-90
2023/12/16 02:27:34;;;;;;;6.33;4.93;;;;;;;;;;6285109;22;20404;-89
2023/12/16 02:30:00;;;;;;;6.07;4.30;;;;;;;;;;6289759;22;20397;-90
2023/12/16 02:32:26;;;;;;;7.83;5.63;;;;;;;;;;6310859;22;20975;-89
2023/12/16 02:34:52;;;;;;;5.97;4.20;;;;;;;;;;6284099;22;20450;-89
2023/12/16 02:37:18;;;;;;;9.50;5.67;;;;;;;;;;6283224;22;20414;-90
2023/12/16 02:39:44;;;;;;;7.77;5.03;;;;;;;;;;6282661;22;20380;-90
2023/12/16 02:42:10;;;;;;;5.60;4.40;;;;;;;;;;6284990;22;20381;-90
2023/12/16 02:44:36;;;;;;;12.40;5.73;;;;;;;;;;6309526;22;20767;-89
2023/12/16 02:47:02;;;;;;;8.03;6.17;;;;;;;;;;6284610;22;20410;-90
2023/12/16 02:49:28;;;;;;;4.27;3.80;;;;;;;;;;6285251;22;20391;-90
2023/12/16 02:51:54;;;;;;;4.57;3.90;;;;;;;;;;6286569;22;20396;-89
2023/12/16 02:54:20;;;;;;;6.23;4.63;;;;;;;;;;6285557;22;20376;-90
2023/12/16 02:56:46;;;;;;;5.63;4.60;;;;;;;;;;6311788;22;20361;-91
2023/12/16 02:59:12;;;;;;;5.90;4.20;;;;;;;;;;6285387;22;20376;-91
2023/12/16 03:01:42;;;;;;;5.30;4.30;;;;;;;;;;6287073;22;20371;-91
2023/12/16 03:04:08;;;;;;;9.67;5.87;;;;;;;;;;6283977;22;20483;-90
2023/12/16 03:06:35;;;;;;;5.37;4.67;;;;;;;;;;6286422;22;20361;-91
2023/12/16 03:09:01;;;;;;;4.20;3.80;;;;;;;;;;6284629;22;20372;-91
2023/12/16 03:11:27;;;;;;;5.77;4.50;;;;;;;;;;6283057;22;20439;-90
2023/12/16 03:13:53;;;;;;;5.73;5.20;;;;;;;;;;6282713;22;20881;-89
2023/12/16 03:16:19;;;;;;;5.77;5.17;;;;;;;;;;6285780;22;20416;-90
2023/12/16 03:18:45;;;;;;;6.00;4.57;;;;;;;;;;6309735;22;20360;-88
2023/12/16 03:21:11;;;;;;;6.57;4.37;;;;;;;;;;6285868;22;20904;-90
2023/12/16 03:23:38;;;;;;;4.97;4.00;;;;;;;;;;6284463;22;20465;-90
2023/12/16 03:26:04;;;;;;;5.70;4.57;;;;;;;;;;6285975;22;20459;-88
2023/12/16 03:28:30;;;;;;;11.73;5.67;;;;;;;;;;6309045;22;20361;-90
2023/12/16 03:30:56;;;;;;;6.13;5.33;;;;;;;;;;6283498;22;20404;-90
2023/12/16 03:33:22;;;;;;;5.93;3.77;;;;;;;;;;6283353;22;20381;-89
2023/12/16 03:35:48;;;;;;;6.23;4.47;;;;;;;;;;6287334;22;20475;-90
2023/12/16 03:38:14;;;;;;;5.60;4.47;;;;;;;;;;6285463;22;20387;-89
2023/12/16 03:40:40;;;;;;;5.30;4.50;;;;;;;;;;6310327;22;20364;-90
2023/12/16 03:43:07;;;;;;;5.00;4.07;;;;;;;;;;6309600;22;20414;-90
2023/12/16 03:45:33;;;;;;;7.13;3.87;;;;;;;;;;6309979;22;20364;-90
2023/12/16 03:47:59;;;;;;;4.43;4.03;;;;;;;;;;6310425;22;20414;-90
2023/12/16 03:50:25;;;;;;;6.37;4.10;;;;;;;;;;6285604;22;20381;-89
2023/12/16 03:52:51;;;;;;;5.10;4.20;;;;;;;;;;6284905;22;20395;-89
2023/12/16 03:55:17;;;;;;;6.57;4.93;;;;;;;;;;6285949;22;20450;-90
2023/12/16 03:57:43;;;;;;;6.07;3.80;;;;;;;;;;6286617;22;20368;-89
2023/12/16 04:00:09;;;;;;;4.97;4.17;;;;;;;;;;6283607;22;20379;-90
2023/12/16 04:02:35;;;;;;;5.13;3.97;;;;;;;;;;6338499;22;20726;-90
2023/12/16 04:05:01;;;;;;;5.40;4.90;;;;;;;;;;6285786;22;20441;-90
2023/12/16 04:07:27;;;;;;;5.20;4.10;;;;;;;;;;6287030;22;20454;-89
2023/12/16 04:09:54;;;;;;;7.37;4.33;;;;;;;;;;6285376;22;20379;-90
2023/12/16 04:12:20;;;;;;;5.93;5.37;;;;;;;;;;6288901;22;20373;-90
2023/12/16 04:14:46;;;;;;;7.87;4.20;;;;;;;;;;6311433;22;20883;-90
2023/12/16 04:17:12;;;;;;;5.50;4.10;;;;;;;;;;6288768;22;20399;-90
2023/12/16 04:19:38;;;;;;;6.37;4.23;;;;;;;;;;6284293;22;20379;-90
2023/12/16 04:22:04;;;;;;;4.40;3.83;;;;;;;;;;6314474;22;20832;-92
2023/12/16 04:24:30;;;;;;;6.53;3.97;;;;;;;;;;6285012;22;20426;-90
2023/12/16 04:26:56;;;;;;;7.23;3.70;;;;;;;;;;6288274;22;20384;-90
2023/12/16 04:29:22;;;;;;;5.80;4.37;;;;;;;;;;6285448;22;20383;-90
2023/12/16 04:31:48;;;;;;;5.67;4.90;;;;;;;;;;6286437;22;20392;-90
2023/12/16 04:34:14;;;;;;;5.63;4.57;;;;;;;;;;6288619;22;20439;-90
2023/12/16 04:36:40;;;;;;;5.13;3.90;;;;;;;;;;6285841;22;20353;-90
2023/12/16 04:39:07;;;;;;;3.97;3.20;;;;;;;;;;6312634;22;20432;-90
2023/12/16 04:41:33;;;;;;;5.57;3.97;;;;;;;;;;6285664;22;20490;-90
2023/12/16 04:43:59;;;;;;;6.60;4.60;;;;;;;;;;6293495;22;20373;-90
2023/12/16 04:46:25;;;;;;;6.83;4.00;;;;;;;;;;6285007;22;20473;-90
2023/12/16 04:48:51;;;;;;;6.93;4.63;;;;;;;;;;6289210;22;20473;-90
2023/12/16 04:51:17;;;;;;;6.70;4.50;;;;;;;;;;6285133;22;20736;-90
2023/12/16 04:53:43;;;;;;;4.60;3.47;;;;;;;;;;6287929;22;20391;-90
2023/12/16 04:56:09;;;;;;;5.43;3.23;;;;;;;;;;6287343;22;20831;-90
2023/12/16 04:58:35;;;;;;;6.47;3.70;;;;;;;;;;6312449;22;20373;-90
2023/12/16 05:01:04;;;;;;;5.20;3.57;;;;;;;;;;6286040;22;20372;-90
2023/12/16 05:03:32;;;;;;;4.23;3.50;;;;;;;;;;6289886;22;20380;-90
2023/12/16 05:05:58;;;;;;;4.90;3.83;;;;;;;;;;6286391;22;20399;-90
2023/12/16 05:08:24;;;;;;;4.13;3.77;;;;;;;;;;6288227;22;20377;-91
2023/12/16 05:10:50;;;;;;;3.90;3.43;;;;;;;;;;6285224;22;20365;-91
2023/12/16 05:13:16;;;;;;;5.10;3.90;;;;;;;;;;6313325;22;20368;-90
2023/12/16 05:15:42;;;;;;;3.70;3.03;;;;;;;;;;6312473;22;20407;-89
2023/12/16 05:18:08;;;;;;;6.00;3.53;;;;;;;;;;6291227;22;20444;-90
2023/12/16 05:20:34;;;;;;;5.03;3.80;;;;;;;;;;6284961;22;20376;-90
2023/12/16 05:23:00;;;;;;;4.80;3.20;;;;;;;;;;6284601;22;20396;-90
2023/12/16 05:25:28;;;;;;;4.53;3.40;;;;;;;;;;6310346;22;20353;-89
2023/12/16 05:27:54;;;;;;;6.70;4.00;;;;;;;;;;6286684;22;20387;-89
2023/12/16 05:30:20;;;;;;;6.17;4.17;;;;;;;;;;6283854;22;20372;-89
2023/12/16 05:32:46;;;;;;;4.83;3.40;;;;;;;;;;6286389;22;20790;-88
2023/12/16 05:35:12;;;;;;;8.47;4.33;;;;;;;;;;6283031;22;20469;-89
2023/12/16 05:37:38;;;;;;;4.97;3.20;;;;;;;;;;6285534;22;20733;-90
2023/12/16 05:40:04;;;;;;;5.57;3.50;;;;;;;;;;6285873;22;20376;-89
2023/12/16 05:42:30;;;;;;;4.90;4.47;;;;;;;;;;6285371;22;20715;-89
2023/12/16 05:44:56;;;;;;;3.17;2.87;;;;;;;;;;6285879;22;20384;-89
2023/12/16 05:47:23;;;;;;;3.60;3.20;;;;;;;;;;6287765;22;20387;-89
2023/12/16 05:49:48;;;;;;;5.07;3.47;;;;;;;;;;6289015;22;20372;-89
2023/12/16 05:52:15;;;;;;;4.40;3.10;;;;;;;;;;6311544;22;20714;-89
2023/12/16 05:54:41;;;;;;;5.40;4.10;;;;;;;;;;6310528;22;20404;-88
2023/12/16 05:57:07;;;;;;;4.73;4.20;;;;;;;;;;6284709;22;20365;-89
2023/12/16 05:59:34;;;;;;;4.93;4.07;;;;;;;;;;6287188;22;20459;-90
2023/12/16 06:02:00;;;;;;;5.00;3.67;;;;;;;;;;6284172;22;20403;-89
2023/12/16 06:04:26;;;;;;;4.40;3.90;;;;;;;;;;6312581;22;20376;-90
2023/12/16 06:06:52;;;;;;;3.27;2.97;;;;;;;;;;6285457;22;20419;-89
2023/12/16 06:09:18;;;;;;;4.83;3.73;;;;;;;;;;6286874;22;20383;-89
2023/12/16 06:11:44;;;;;;;5.70;3.83;;;;;;;;;;6283781;22;20387;-88
2023/12/16 06:14:10;;;;;;;4.90;4.03;;;;;;;;;;6287962;22;20376;-89
2023/12/16 06:16:36;;;;;;;4.07;3.27;;;;;;;;;;6284001;22;20428;-89
2023/12/16 06:19:02;;;;;;;4.00;3.37;;;;;;;;;;6288655;22;20843;-88
2023/12/16 06:21:29;;;;;;;3.80;3.40;;;;;;;;;;6310770;22;20371;-88
2023/12/16 06:23:57;;;;;;;6.20;4.00;;;;;;;;;;6288612;22;20845;-89
2023/12/16 06:26:23;;;;;;;6.47;3.97;;;;;;;;;;6310910;22;20444;-89
2023/12/16 06:28:49;;;;;;;3.70;3.40;;;;;;;;;;6288523;22;20388;-92
2023/12/16 06:31:18;;;;;;;3.93;3.57;;;;;;;;;;6284112;22;20427;-89
2023/12/16 06:33:45;;;;;;;3.30;2.97;;;;;;;;;;6287548;22;20376;-88
2023/12/16 06:36:10;;;;;;;5.50;3.43;;;;;;;;;;6283582;22;20416;-91
2023/12/16 06:38:37;;;;;;;6.07;3.80;;;;;;;;;;6286517;22;20376;-90
2023/12/16 06:41:03;;;;;;;4.00;3.60;;;;;;;;;;6285264;22;20408;-91
2023/12/16 06:43:29;;;;;;;3.73;3.43;;;;;;;;;;6313037;22;20371;-90
2023/12/16 06:45:55;;;;;;;5.73;4.10;;;;;;;;;;6312386;22;20369;-90
2023/12/16 06:48:25;;;;;;;3.60;3.30;;;;;;;;;;6286688;22;20864;-89
2023/12/16 06:50:54;;;;;;;4.40;4.00;;;;;;;;;;6286200;22;20529;-89
2023/12/16 06:53:20;;;;;;;4.70;3.50;;;;;;;;;;6288728;22;20396;-90
2023/12/16 06:55:46;;;;;;;9.03;3.23;;;;;;;;;;6288513;22;20416;-90
2023/12/16 06:58:12;;;;;;;6.43;4.47;;;;;;;;;;6313570;22;20391;-90
2023/12/16 07:00:38;;;;;;;5.80;3.70;;;;;;;;;;6285078;22;20353;-90
2023/12/16 07:03:04;;;;;;;4.60;3.70;;;;;;;;;;6287480;22;20443;-90
2023/12/16 07:05:32;;;;;;;5.90;4.40;;;;;;;;;;6285975;22;20377;-90
2023/12/16 07:07:58;;;;;;;5.57;4.10;;;;;;;;;;6283224;22;20373;-90
2023/12/16 07:10:24;;;;;;;6.90;4.13;;;;;;;;;;6286409;22;20415;-90
2023/12/16 07:12:50;;;;;;;4.00;3.47;;;;;;;;;;6285639;22;20872;-90
2023/12/16 07:15:16;;;;;;;4.67;2.80;;;;;;;;;;6284683;22;20442;-88
2023/12/16 07:17:44;;;;;;;4.37;3.97;;;;;;;;;;6283281;22;20463;-88
2023/12/16 07:20:11;;;;;;;5.93;3.90;;;;;;;;;;6285443;22;20372;-88
2023/12/16 07:22:37;;;;;;;3.90;3.10;;;;;;;;;;6285317;22;20428;-88
2023/12/16 07:25:04;;;;;;;6.60;3.40;;;;;;;;;;6288498;22;20384;-88
2023/12/16 07:27:30;;;;;;;6.57;3.90;;;;;;;;;;6285811;22;20751;-88
2023/12/16 07:29:56;;;;;;;6.00;3.60;;;;;;;;;;6287757;22;20402;-89
2023/12/16 07:32:23;;;;;;;3.17;2.87;;;;;;;;;;6286967;22;20423;-87
2023/12/16 07:34:50;;;;;;;5.10;3.70;;;;;;;;;;6288443;22;20423;-89
2023/12/16 07:37:16;;;;;;;4.50;3.80;;;;;;;;;;6286589;22;20860;-88
2023/12/16 07:39:42;;;;;;;5.87;3.90;;;;;;;;;;6286229;22;20440;-88
2023/12/16 07:42:08;;;;;;;7.53;4.90;;;;;;;;;;6285484;22;20368;-88
2023/12/16 07:44:34;;;;;;;5.40;3.37;;;;;;;;;;6286288;22;20376;-88
2023/12/16 07:47:00;;;;;;;5.50;3.70;;;;;;;;;;6313071;22;20371;-89
2023/12/16 07:49:27;;;;;;;4.83;3.70;;;;;;;;;;6285135;22;20377;-89
2023/12/16 07:51:54;;;;;;;4.90;4.30;;;;;;;;;;6288633;22;20440;-89
2023/12/16 07:54:22;;;;;;;3.30;3.00;;;;;;;;;;6285240;22;20400;-88
2023/12/16 07:56:48;;;;;;;3.53;3.23;;;;;;;;;;6286625;22;20381;-87
2023/12/16 07:59:14;;;;;;;5.40;3.50;;;;;;;;;;6283938;22;20414;-89
2023/12/16 08:01:40;;;;;;;3.23;2.87;;;;;;;;;;6284498;22;20685;-88
2023/12/16 08:04:07;;;;;;;3.50;2.63;;;;;;;;;;6285998;22;20384;-89
2023/12/16 08:06:33;;;;;;;4.27;3.47;;;;;;;;;;6340018;22;20380;-88
2023/12/16 08:08:59;;;;;;;4.20;3.37;;;;;;;;;;6285054;22;20388;-88
2023/12/16 08:11:25;;;;;;;3.90;3.50;;;;;;;;;;6290804;22;20383;-88
2023/12/16 08:13:51;;;;;;;3.00;2.70;;;;;;;;;;6286492;22;20372;-89
2023/12/16 08:16:17;;;;;;;3.87;3.17;;;;;;;;;;6313420;22;20415;-90
2023/12/16 08:18:43;;;;;;;3.70;3.10;;;;;;;;;;6287568;22;20379;-87
2023/12/16 08:21:10;;;;;;;2.70;2.50;;;;;;;;;;6315681;22;20825;-88
2023/12/16 08:23:36;;;;;;;2.97;2.50;;;;;;;;;;6288366;22;20413;-86
2023/12/16 08:26:03;;;;;;;3.80;3.00;;;;;;;;;;6289251;22;20383;-90
2023/12/16 08:28:29;;;;;;;3.67;3.07;;;;;;;;;;6292006;22;20408;-87
2023/12/16 08:30:55;;;;;;;2.53;2.33;;;;;;;;;;6312288;22;20388;-89
2023/12/16 08:33:21;;;;;;;4.17;3.23;;;;;;;;;;6287116;22;20707;-88
2023/12/16 08:35:47;;;;;;;4.60;4.20;;;;;;;;;;6286684;22;20431;-89
2023/12/16 08:38:13;;;;;;;6.57;3.73;;;;;;;;;;6291217;22;20387;-88
2023/12/16 08:40:43;;;;;;;5.90;4.03;;;;;;;;;;6286251;22;20780;-88
2023/12/16 08:43:09;;;;;;;6.00;3.90;;;;;;;;;;6287403;22;20887;-87
2023/12/16 08:45:35;;;;;;;5.77;3.97;;;;;;;;;;6311230;22;20881;-88
2023/12/16 08:48:01;;;;;;;7.27;3.73;;;;;;;;;;6289508;22;20392;-89
2023/12/16 08:50:28;;;;;;;5.73;3.77;;;;;;;;;;6311603;22;20373;-87
2023/12/16 08:52:54;;;;;;;4.87;2.80;;;;;;;;;;6291933;22;20410;-88
2023/12/16 08:55:20;;;;;;;3.57;3.27;;;;;;;;;;6312342;22;20408;-88
2023/12/16 08:57:46;;;;;;;3.60;2.90;;;;;;;;;;6292292;22;20361;-88
2023/12/16 09:00:12;;;;;;;2.80;2.50;;;;;;;;;;6285605;22;20368;-87
2023/12/16 09:02:39;;;;;;;4.00;3.70;;;;;;;;;;6310666;22;20369;-87
2023/12/16 09:05:05;;;;;;;5.57;2.90;;;;;;;;;;6285763;22;20459;-88
2023/12/16 09:07:34;;;;;;;3.57;3.27;;;;;;;;;;6313120;22;21070;-89
2023/12/16 09:10:00;;;;;;;4.13;2.87;;;;;;;;;;6285673;22;20381;-88
2023/12/16 09:12:35;;;;;;;4.07;3.50;;;;;;;;;;6285811;22;20384;-88
2023/12/16 09:15:05;;;;;;;3.90;3.60;;;;;;;;;;6288934;22;20411;-88
2023/12/16 09:17:31;;;;;;;3.87;3.13;;;;;;;;;;6287065;22;20404;-87
2023/12/16 09:19:57;;;;;;;5.37;3.50;;;;;;;;;;6287089;22;20804;-88
2023/12/16 09:22:23;;;;;;;4.60;3.50;;;;;;;;;;6287117;22;20380;-88
2023/12/16 09:24:52;;;;;;;5.50;4.37;;;;;;;;;;6288217;22;20388;-88
2023/12/16 09:27:18;;;;;;;5.93;3.70;;;;;;;;;;6287958;22;20376;-88
2023/12/16 09:29:46;;;;;;;4.47;4.00;;;;;;;;;;6288459;22;20380;-88
2023/12/16 09:32:12;;;;;;;4.10;3.27;;;;;;;;;;6312070;22;20429;-89
2023/12/16 09:34:38;;;;;;;3.23;2.93;;;;;;;;;;6287602;22;20381;-88
2023/12/16 09:37:10;;;;;;;3.90;3.00;;;;;;;;;;6284718;22;20426;-87
2023/12/16 09:39:42;;;;;;;3.13;2.73;;;;;;;;;;6287099;22;20376;-88
2023/12/16 09:42:08;;;;;;;4.57;3.00;;;;;;;;;;6287888;22;20368;-88
2023/12/16 09:44:36;;;;;;;4.67;2.93;;;;;;;;;;6311697;22;20415;-88
2023/12/16 09:47:02;;;;;;;4.10;3.47;;;;;;;;;;6285936;22;20372;-88
2023/12/16 09:49:30;;;;;;;4.30;3.10;;;;;;;;;;6284660;22;20391;-87
2023/12/16 09:51:56;;;;;;;4.67;3.13;;;;;;;;;;6289224;22;20386;-89
2023/12/16 09:54:22;;;;;;;4.53;3.03;;;;;;;;;;6292805;22;20377;-88
2023/12/16 09:56:49;;;;;;;3.57;3.23;;;;;;;;;;6286885;22;20450;-88
2023/12/16 09:59:15;;;;;;;3.93;3.60;;;;;;;;;;6285044;22;20384;-88
2023/12/16 10:01:50;;;;;;;7.30;3.43;;;;;;;;;;6262594;22;20405;-87
2023/12/16 10:04:16;;;;;;;6.67;3.73;;;;;;;;;;6290354;22;20411;-88
2023/12/16 10:06:44;;;;;;;4.83;3.70;;;;;;;;;;6289061;22;20701;-87
2023/12/16 10:09:09;;;;;;;6.97;3.57;;;;;;;;;;6285357;22;20372;-88
2023/12/16 10:11:39;;;;;;;6.10;3.17;;;;;;;;;;6288845;22;20967;-87
2023/12/16 10:14:06;;;;;;;7.93;3.50;;;;;;;;;;6285342;22;20408;-87
2023/12/16 10:16:32;;;;;;;3.90;3.33;;;;;;;;;;6314922;22;20439;-88
2023/12/16 10:18:58;;;;;;;8.40;2.83;;;;;;;;;;6311666;22;20388;-88
2023/12/16 10:21:25;;;;;;;2.80;2.60;;;;;;;;;;6287868;22;20373;-88
2023/12/16 10:23:51;;;;;;;4.37;3.00;;;;;;;;;;6285670;22;20373;-88
2023/12/16 10:26:18;;;;;;;6.03;3.03;;;;;;;;;;6286025;22;20436;-88
2023/12/16 10:28:47;;;;;;;3.00;2.70;;;;;;;;;;6284386;22;20471;-87
2023/12/16 10:31:15;;;;;;;4.70;3.57;;;;;;;;;;6284940;22;20849;-87
2023/12/16 10:33:41;;;;;;;4.27;3.37;;;;;;;;;;6283587;22;20377;-88
2023/12/16 10:36:08;;;;;;;7.27;3.03;;;;;;;;;;6287232;22;20403;-87
2023/12/16 10:38:34;;;;;;;6.00;2.80;;;;;;;;;;6313452;22;20352;-88
2023/12/16 10:41:00;;;;;;;6.27;4.07;;;;;;;;;;6284192;22;20848;-87
2023/12/16 10:43:26;;;;;;;4.17;3.70;;;;;;;;;;6285183;22;20387;-88
2023/12/16 10:45:52;;;;;;;5.10;3.80;;;;;;;;;;6285835;22;21253;-88
2023/12/16 10:48:20;;;;;;;6.63;2.93;;;;;;;;;;6287715;22;20954;-86
2023/12/16 10:50:46;;;;;;;4.57;2.53;;;;;;;;;;6283556;22;20836;-87
2023/12/16 10:53:23;;;;;;;5.10;3.70;;;;;;;;;;6284752;22;20368;-87
2023/12/16 10:55:50;;;;;;;4.33;2.93;;;;;;;;;;6311274;22;20820;-87
2023/12/16 10:58:21;;;;;;;4.27;2.30;;;;;;;;;;6287635;22;20844;-87
2023/12/16 11:00:49;;;;;;;3.80;2.87;;;;;;;;;;6310850;22;20829;-87
2023/12/16 11:03:21;;;;;;;5.70;3.70;;;;;;;;;;6288599;22;20450;-88
2023/12/16 11:05:49;;;;;;;4.27;3.17;;;;;;;;;;6314181;22;20361;-88
2023/12/16 11:08:16;;;;;;;3.23;2.90;;;;;;;;;;6289367;22;20376;-89
2023/12/16 11:10:43;;;;;;;7.00;3.10;;;;;;;;;;6287847;22;20377;-87
2023/12/16 11:13:09;;;;;;;3.23;2.50;;;;;;;;;;6288218;22;20379;-88
2023/12/16 11:15:35;;;;;;;5.10;3.00;;;;;;;;;;6288534;22;20419;-87
2023/12/16 11:18:13;;;;;;;6.07;2.80;;;;;;;;;;6289959;22;20379;-88
2023/12/16 11:20:40;;;;;;;2.90;2.70;;;;;;;;;;6340766;22;20400;-88
2023/12/16 11:23:06;;;;;;;3.93;3.10;;;;;;;;;;6288154;22;20384;-87
2023/12/16 11:25:34;;;;;;;3.97;2.37;;;;;;;;;;6286508;22;20368;-88
2023/12/16 11:28:00;;;;;;;7.53;3.47;;;;;;;;;;6288854;22;20380;-86
2023/12/16 11:30:27;;;;;;;3.77;3.47;;;;;;;;;;6313494;22;20415;-86
2023/12/16 11:32:54;;;;;;;2.87;2.33;;;;;;;;;;6284916;22;20464;-87
2023/12/16 11:35:39;;;;;;;3.50;2.80;;;;;;;;;;6286256;22;20502;-89
2023/12/16 11:38:07;;;;;;;7.87;3.50;;;;;;;;;;6311982;22;20352;-89
2023/12/16 11:40:43;;;;;;;6.93;3.83;;;;;;;;;;6342516;22;20369;-88
2023/12/16 11:43:09;;;;;;;5.20;3.20;;;;;;;;;;6285381;22;20827;-91
2023/12/16 11:45:39;;;;;;;4.20;3.13;;;;;;;;;;6285527;22;20690;-87
2023/12/16 11:48:08;;;;;;;7.20;4.10;;;;;;;;;;6284868;22;20482;-88
2023/12/16 11:50:36;;;;;;;3.70;3.30;;;;;;;;;;6289997;22;20471;-88
2023/12/16 11:53:02;;;;;;;5.80;3.83;;;;;;;;;;6313616;22;20706;-94
2023/12/16 11:55:28;;;;;;;5.20;3.53;;;;;;;;;;6315458;22;20412;-88
2023/12/16 11:57:57;;;;;;;3.73;3.13;;;;;;;;;;6311334;22;20388;-89
2023/12/16 12:00:23;;;;;;;3.80;3.40;;;;;;;;;;6287442;22;20925;-88
2023/12/16 12:02:50;;;;;;;9.83;4.07;;;;;;;;;;6288040;22;20457;-92
2023/12/16 12:05:16;;;;;;;5.13;3.20;;;;;;;;;;6287535;22;20453;-89
2023/12/16 12:07:42;;;;;;;5.07;4.53;;;;;;;;;;6311478;22;20452;-88
2023/12/16 12:10:11;;;;;;;9.30;4.10;;;;;;;;;;6289383;22;20923;-89
2023/12/16 12:12:37;;;;;;;11.80;3.47;;;;;;;;;;6288747;22;20381;-88
2023/12/16 12:15:04;;;;;;;7.53;3.73;;;;;;;;;;6289461;22;20764;-90
2023/12/16 12:17:30;;;;;;;5.90;3.50;;;;;;;;;;6314769;22;20420;-90
2023/12/16 12:19:56;;;;;;;6.50;3.80;;;;;;;;;;6289045;22;20396;-91
2023/12/16 12:22:23;;;;;;;6.90;3.40;;;;;;;;;;6290192;22;20444;-89
2023/12/16 12:24:50;;;;;;;8.63;3.57;;;;;;;;;;6287474;22;20376;-90
2023/12/16 12:27:16;;;;;;;6.80;3.70;;;;;;;;;;6289463;22;20383;-89
2023/12/16 12:29:58;;;;;;;9.17;4.50;;;;;;;;;;6285408;22;20420;-91
2023/12/16 12:32:27;;;;;;;6.30;3.20;;;;;;;;;;6289620;22;20398;-91
2023/12/16 12:34:59;;;;;;;5.07;3.33;;;;;;;;;;6287110;22;20420;-91
2023/12/16 12:37:26;;;;;;;5.70;4.37;;;;;;;;;;6340183;22;20372;-92
2023/12/16 12:39:53;;;;;;;4.13;3.20;;;;;;;;;;6285897;22;20376;-90
2023/12/16 12:42:22;;;;;;;3.77;3.40;;;;;;;;;;6291425;22;20381;-91
2023/12/16 12:44:58;;;;;;;5.90;3.77;;;;;;;;;;6287555;22;20380;-89
2023/12/16 12:47:28;;;;;;;10.40;4.60;;;;;;;;;;6313715;22;20432;-90
2023/12/16 12:49:55;;;;;;;3.60;3.10;;;;;;;;;;6287431;22;20377;-91
2023/12/16 12:52:34;;;;;;;8.30;3.23;;;;;;;;;;6290893;22;20373;-89
2023/12/16 12:55:00;;;;;;;3.00;2.80;;;;;;;;;;6285781;22;20456;-90
2023/12/16 12:57:26;;;;;;;3.77;2.80;;;;;;;;;;6286228;22;20723;-89
2023/12/16 12:59:56;;;;;;;6.97;3.30;;;;;;;;;;6286076;22;20392;-91
2023/12/16 13:02:22;;;;;;;3.93;3.30;;;;;;;;;;6338013;22;20437;-87
2023/12/16 13:04:48;;;;;;;5.23;3.00;;;;;;;;;;6286123;22;20376;-88
2023/12/16 13:07:15;;;;;;;4.13;3.50;;;;;;;;;;6288183;22;20384;-88
2023/12/16 13:09:41;;;;;;;11.07;3.13;;;;;;;;;;6280806;22;20400;-89
2023/12/16 13:12:07;;;;;;;6.50;2.43;;;;;;;;;;6286976;22;20377;-84
2023/12/16 13:14:33;;;;;;;7.60;2.57;;;;;;;;;;6284361;22;20453;-88
2023/12/16 13:17:00;;;;;;;5.83;2.67;;;;;;;;;;6284249;22;20368;-89
2023/12/16 13:19:26;;;;;;;7.43;2.63;;;;;;;;;;6283422;22;20872;-87
2023/12/16 13:21:52;;;;;;;5.47;2.77;;;;;;;;;;6286122;22;20406;-88
2023/12/16 13:24:18;;;;;;;3.40;2.40;;;;;;;;;;6309579;22;20401;-88
2023/12/16 13:26:44;;;;;;;3.60;2.63;;;;;;;;;;6284386;22;20380;-86
2023/12/16 13:29:10;;;;;;;6.53;2.60;;;;;;;;;;6283552;22;20376;-88
2023/12/16 13:31:36;;;;;;;10.23;2.70;;;;;;;;;;6283962;22;20480;-88
2023/12/16 13:34:02;;;;;;;12.47;3.73;;;;;;;;;;6250182;22;20381;-85
2023/12/16 13:36:29;;;;;;;5.23;2.47;;;;;;;;;;6224051;22;20751;-90
2023/12/16 13:38:55;;;;;;;4.73;3.20;;;;;;;;;;6223578;22;20377;-88
2023/12/16 13:41:21;;;;;;;4.77;3.10;;;;;;;;;;6225234;22;20385;-87
2023/12/16 13:43:49;;;;;;;4.70;2.53;;;;;;;;;;6227371;22;20416;-87
2023/12/16 13:46:15;;;;;;;3.50;2.53;;;;;;;;;;6227312;22;20412;-88
2023/12/16 13:48:41;;;;;;;3.47;2.30;;;;;;;;;;6228827;22;20413;-88
2023/12/16 13:51:07;;;;;;;10.27;3.23;;;;;;;;;;6224591;22;20798;-88
2023/12/16 13:53:33;;;;;;;4.27;2.40;;;;;;;;;;6227964;22;20381;-87
2023/12/16 13:55:59;;;;;;;4.83;2.80;;;;;;;;;;6226823;22;20436;-90
2023/12/16 13:58:25;;;;;;;3.00;2.10;;;;;;;;;;6227549;22;20374;-88
2023/12/16 14:00:52;;;;;;;4.70;2.70;;;;;;;;;;6252151;22;20373;-87
2023/12/16 14:03:23;;;;;;;6.87;3.17;;;;;;;;;;6226928;22;20433;-88
2023/12/16 14:06:02;;;;;;;14.47;3.30;;;;;;;;;;6273614;22;20387;-88
2023/12/16 14:08:31;;;;;;;4.70;2.77;;;;;;;;;;6284269;22;20433;-88
2023/12/16 14:10:57;;;;;;;6.63;2.50;;;;;;;;;;6284735;22;21237;-87
2023/12/16 14:13:25;;;;;;;5.73;2.67;;;;;;;;;;6258241;22;20719;-89
2023/12/16 14:15:51;;;;;;;6.23;2.73;;;;;;;;;;6258630;22;20756;-88
2023/12/16 14:18:17;;;;;;;4.20;2.43;;;;;;;;;;6283823;22;20367;-89
2023/12/16 14:20:43;;;;;;;2.43;2.20;;;;;;;;;;6259915;22;20380;-89
2023/12/16 14:23:09;;;;;;;4.93;2.47;;;;;;;;;;6256789;22;20359;-89
2023/12/16 14:25:35;;;;;;;6.47;2.50;;;;;;;;;;6260552;22;20383;-89
2023/12/16 14:28:01;;;;;;;6.40;3.17;;;;;;;;;;6257583;22;20416;-88
2023/12/16 14:30:28;;;;;;;2.93;2.20;;;;;;;;;;6259470;22;20387;-89
2023/12/16 14:32:54;;;;;;;3.80;2.60;;;;;;;;;;6282985;22;20448;-90
2023/12/16 14:35:20;;;;;;;3.07;2.33;;;;;;;;;;6257877;22;20530;-89
2023/12/16 14:37:46;;;;;;;4.57;3.00;;;;;;;;;;6258953;22;20380;-90
2023/12/16 14:40:12;;;;;;;12.87;3.77;;;;;;;;;;6259464;22;20377;-90